Time;durP1;ratioP1;P1;durP2;ratioP2;P2;SDS_P1;SDS_P2;PMS_P1;PMS_P2;Temp;Humidity;BMP_temperature;BMP_pressure;BME280_temperature;BME280_humidity;BME280_pressure;Samples;Min_cycle;Max_cycle;Signal;HPM_P1;HPM_P2
2022/12/29 00:02:04;;;;;;;;;1.33;1.00;;;;;11.98;84.51;100318.78;4973883;28;46278;-50
2022/12/29 00:04:30;;;;;;;;;2.33;0.00;;;;;12.01;84.34;100292.78;4973809;28;45425;-52
2022/12/29 00:06:56;;;;;;;;;0.00;0.00;;;;;11.98;83.51;100308.13;4974199;28;45177;-50
2022/12/29 00:09:21;;;;;;;;;1.00;1.00;;;;;12.04;83.79;100298.63;4974213;28;45266;-52
2022/12/29 00:11:47;;;;;;;;;0.00;0.00;;;;;12.06;84.14;100301.13;4973954;28;45208;-53
2022/12/29 00:16:57;;;;;;;;;0.00;0.00;;;;;12.08;83.64;100297.28;4974801;28;45225;-50
2022/12/29 00:36:08;;;;;;;;;0.00;0.00;;;;;12.19;83.91;100290.78;5037141;28;45411;-52
2022/12/29 00:44:10;;;;;;;;;3.00;3.00;;;;;12.19;84.60;100248.13;5036876;28;45284;-47
2022/12/29 00:46:37;;;;;;;;;2.00;0.00;;;;;12.14;84.51;100269.97;5036768;28;45511;-49
2022/12/29 00:49:45;;;;;;;;;1.00;1.00;;;;;12.15;84.93;100265.47;5037032;28;45553;-55
2022/12/29 00:51:53;;;;;;;;;1.00;1.00;;;;;12.15;85.16;100276.97;5028855;28;45625;-49
2022/12/29 00:54:19;;;;;;;;;2.67;1.00;;;;;12.12;85.87;100279.13;5036821;28;45392;-50
2022/12/29 00:56:50;;;;;;;;;2.33;2.00;;;;;12.11;85.85;100286.28;5036876;28;45586;-50
2022/12/29 00:59:17;;;;;;;;;2.00;1.00;;;;;12.09;85.71;100279.44;5036798;28;45517;-54
2022/12/29 01:01:43;;;;;;;;;2.67;1.67;;;;;12.06;86.32;100285.97;5036271;28;46502;-50
2022/12/29 01:04:09;;;;;;;;;2.00;1.33;;;;;12.04;87.10;100266.63;5021656;28;45329;-49
2022/12/29 01:06:36;;;;;;;;;2.00;2.00;;;;;12.05;87.26;100280.78;4976292;28;45221;-49
2022/12/29 01:11:46;;;;;;;;;1.00;1.00;;;;;11.95;87.32;100263.13;4975925;28;45807;-49
2022/12/29 01:14:12;;;;;;;;;2.00;2.00;;;;;12.05;87.34;100283.44;4975760;28;45314;-48
2022/12/29 01:16:37;;;;;;;;;4.00;3.00;;;;;12.06;87.43;100267.31;4976104;28;45485;-51
2022/12/29 01:19:03;;;;;;;;;2.00;2.00;;;;;12.07;86.90;100276.13;4975924;28;45256;-48
2022/12/29 01:21:29;;;;;;;;;2.00;1.33;;;;;12.08;86.86;100278.63;4975823;28;47306;-53
2022/12/29 01:23:54;;;;;;;;;1.00;1.00;;;;;12.08;86.74;100286.63;4974382;28;45466;-47
2022/12/29 01:26:20;;;;;;;;;1.00;1.00;;;;;12.10;86.73;100273.97;4975876;28;45456;-50
2022/12/29 01:28:46;;;;;;;;;2.00;1.00;;;;;12.12;86.47;100284.47;4976525;28;45523;-49
2022/12/29 01:31:14;;;;;;;;;1.00;1.00;;;;;12.13;86.27;100273.63;4975524;28;46144;-51
2022/12/29 01:33:39;;;;;;;;;0.00;0.00;;;;;12.14;86.83;100271.81;4975878;28;45263;-58
2022/12/29 01:36:08;;;;;;;;;3.00;2.33;;;;;12.16;86.44;100281.28;4976016;28;45692;-55
2022/12/29 01:38:35;;;;;;;;;1.00;1.00;;;;;12.17;86.44;100282.94;4976112;28;45433;-51
2022/12/29 01:41:01;;;;;;;;;2.00;0.33;;;;;12.19;86.20;100277.47;4975123;28;46182;-50
2022/12/29 01:43:54;;;;;;;;;0.00;0.00;;;;;12.18;85.93;100281.97;4975458;28;45300;-53
2022/12/29 01:46:26;;;;;;;;;0.67;0.67;;;;;12.21;86.09;100275.44;4975955;28;45502;-57
2022/12/29 01:49:05;;;;;;;;;2.00;0.67;;;;;12.14;86.19;100275.31;4975630;28;45431;-50
2022/12/29 01:51:33;;;;;;;;;1.00;1.00;;;;;12.20;86.19;100279.94;4975447;28;46354;-49
2022/12/29 01:54:02;;;;;;;;;0.00;0.00;;;;;12.16;86.16;100283.13;4976919;28;45243;-52
2022/12/29 01:56:28;;;;;;;;;0.00;0.00;;;;;12.22;86.25;100301.97;4975501;28;45370;-46
2022/12/29 01:59:01;;;;;;;;;0.00;0.00;;;;;12.23;85.99;100310.78;4975846;28;45572;-51
2022/12/29 02:01:27;;;;;;;;;3.00;0.00;;;;;12.19;85.50;100291.63;4975467;28;47249;-47
2022/12/29 02:03:52;;;;;;;;;1.00;1.00;;;;;12.12;86.06;100279.94;4975284;28;45458;-52
2022/12/29 02:06:22;;;;;;;;;0.00;0.00;;;;;12.23;86.11;100292.94;4975301;28;45393;-53
2022/12/29 02:08:52;;;;;;;;;0.33;0.33;;;;;12.24;86.36;100294.59;4975852;28;45308;-58
2022/12/29 02:11:18;;;;;;;;;2.33;0.33;;;;;12.24;86.66;100299.13;4975220;28;46519;-53
2022/12/29 02:13:43;;;;;;;;;3.33;0.67;;;;;12.23;86.55;100303.63;4975314;28;45400;-51
2022/12/29 02:16:27;;;;;;;;;1.00;0.00;;;;;12.22;87.07;100315.28;4975194;28;45442;-49
2022/12/29 02:19:00;;;;;;;;;1.00;1.00;;;;;12.24;87.27;100325.78;4975685;28;45391;-55
2022/12/29 02:22:02;;;;;;;;;0.00;0.00;;;;;12.21;86.55;100324.28;4974993;28;46311;-48
2022/12/29 02:25:00;;;;;;;;;1.00;0.00;;;;;12.14;85.81;100301.97;4975169;28;45372;-47
2022/12/29 02:27:50;;;;;;;;;0.00;0.00;;;;;12.07;86.11;100286.81;4975603;28;45340;-56
2022/12/29 02:30:33;;;;;;;;;0.33;0.33;;;;;12.00;85.76;100307.94;4975455;28;45400;-51
2022/12/29 02:33:33;;;;;;;;;0.00;0.00;;;;;11.90;85.03;100300.13;4975164;28;45359;-49
2022/12/29 02:36:14;;;;;;;;;0.00;0.00;;;;;11.88;84.97;100288.81;4953660;28;45434;-53
2022/12/29 02:38:48;;;;;;;;;0.00;0.00;;;;;11.84;84.25;100295.47;4953722;28;45441;-52
2022/12/29 02:41:30;;;;;;;;;1.00;0.00;;;;;11.80;84.21;100288.78;4954707;28;45348;-50
2022/12/29 02:44:10;;;;;;;;;0.00;0.00;;;;;11.79;84.67;100288.91;4953491;28;46168;-51
2022/12/29 02:46:47;;;;;;;;;1.00;0.00;;;;;11.74;84.39;100292.09;4953216;28;45385;-49
2022/12/29 02:49:22;;;;;;;;;0.00;0.00;;;;;11.70;83.58;100280.91;4953386;28;45525;-49
2022/12/29 02:51:47;;;;;;;;;0.00;0.00;;;;;11.69;84.03;100279.25;4951940;28;45507;-52
2022/12/29 02:56:56;;;;;;;;;0.00;0.00;;;;;11.67;83.47;100283.06;4953204;28;45420;-57
2022/12/29 02:59:23;;;;;;;;;0.00;0.00;;;;;11.61;82.51;100270.44;4953547;28;45398;-53
2022/12/29 03:02:20;;;;;;;;;0.00;0.00;;;;;11.65;82.96;100293.91;4953368;28;45560;-47
2022/12/29 03:05:06;;;;;;;;;3.00;0.00;;;;;11.66;82.04;100290.25;4953986;28;46432;-54
2022/12/29 03:07:50;;;;;;;;;0.00;0.00;;;;;11.56;81.98;100262.09;4952888;28;45408;-57
2022/12/29 03:10:18;;;;;;;;;0.00;0.00;;;;;11.66;82.16;100276.91;4953175;28;45591;-60
2022/12/29 03:16:04;;;;;;;;;0.00;0.00;;;;;11.66;81.65;100271.59;4974416;28;45300;-51
2022/12/29 03:18:44;;;;;;;;;0.00;0.00;;;;;11.41;81.21;100224.63;4973229;28;45366;-58
2022/12/29 03:21:17;;;;;;;;;2.67;0.00;;;;;11.69;80.48;100276.59;4974372;28;45470;-59
2022/12/29 03:23:49;;;;;;;;;0.00;0.00;;;;;11.70;80.49;100286.25;4974726;28;45368;-51
2022/12/29 03:26:18;;;;;;;;;0.00;0.00;;;;;11.71;80.85;100258.63;4974335;28;45295;-52
2022/12/29 03:28:53;;;;;;;;;0.00;0.00;;;;;11.67;80.03;100278.59;4974285;28;45890;-59
2022/12/29 03:31:21;;;;;;;;;1.00;0.00;;;;;11.59;80.04;100280.44;4974337;28;45413;-50
2022/12/29 03:33:48;;;;;;;;;0.00;0.00;;;;;11.67;80.57;100296.41;4974465;28;45325;-52
2022/12/29 03:36:26;;;;;;;;;0.00;0.00;;;;;11.53;80.04;100268.59;4973773;28;46231;-59
2022/12/29 03:39:08;;;;;;;;;0.00;0.00;;;;;11.64;80.13;100294.91;4974238;28;45273;-57
2022/12/29 03:41:36;;;;;;;;;0.00;0.00;;;;;11.59;79.72;100291.91;4974336;28;45363;-56
2022/12/29 03:44:01;;;;;;;;;1.00;0.00;;;;;11.60;79.84;100296.25;4974223;28;45330;-49
2022/12/29 03:46:26;;;;;;;;;1.00;0.00;;;;;11.60;80.12;100306.91;4973807;28;46194;-58
2022/12/29 03:48:52;;;;;;;;;0.00;0.00;;;;;11.58;79.78;100305.38;4973849;28;45343;-51
2022/12/29 03:51:17;;;;;;;;;0.00;0.00;;;;;11.62;80.56;100298.72;4974100;28;45554;-48
2022/12/29 03:53:42;;;;;;;;;1.33;0.00;;;;;11.60;80.17;100296.25;4974000;28;45354;-60
2022/12/29 03:56:08;;;;;;;;;0.00;0.00;;;;;11.62;80.21;100288.06;4973880;28;46240;-60
2022/12/29 03:58:33;;;;;;;;;1.33;0.00;;;;;11.58;79.35;100300.88;4973667;28;50400;-50
2022/12/29 04:00:58;;;;;;;;;0.33;0.00;;;;;11.64;79.60;100315.41;4974113;28;45416;-54
2022/12/29 04:03:24;;;;;;;;;0.00;0.00;;;;;11.64;79.36;100302.06;4975952;28;45313;-57
2022/12/29 04:05:49;;;;;;;;;0.00;0.00;;;;;11.63;79.35;100300.38;4980041;28;46173;-52
2022/12/29 04:08:14;;;;;;;;;1.00;0.00;;;;;11.63;79.50;100301.25;4980443;28;45441;-61
2022/12/29 04:10:40;;;;;;;;;0.00;0.00;;;;;11.62;79.37;100301.38;4980258;28;45359;-48
2022/12/29 04:13:05;;;;;;;;;1.67;0.00;;;;;11.54;79.61;100293.38;4980586;28;45307;-46
2022/12/29 04:15:30;;;;;;;;;1.67;0.67;;;;;11.58;79.38;100314.19;4980216;28;45322;-48
2022/12/29 04:17:56;;;;;;;;;1.00;0.00;;;;;11.66;79.45;100318.72;4980427;28;45205;-49
2022/12/29 04:23:06;;;;;;;;;0.33;0.00;;;;;11.67;78.97;100313.25;4980292;28;45294;-50
2022/12/29 04:25:32;;;;;;;;;0.00;0.00;;;;;11.68;79.73;100319.41;4980016;28;46295;-50
2022/12/29 04:27:58;;;;;;;;;3.00;0.00;;;;;11.69;79.37;100335.22;4980109;28;45240;-49
2022/12/29 04:30:23;;;;;;;;;0.00;0.00;;;;;11.69;79.65;100337.06;4980909;28;45252;-47
2022/12/29 04:32:49;;;;;;;;;1.00;0.00;;;;;11.70;79.61;100342.19;4979686;28;45221;-49
2022/12/29 04:35:14;;;;;;;;;0.33;0.00;;;;;11.71;79.73;100337.69;4980468;28;46362;-46
2022/12/29 04:37:40;;;;;;;;;0.33;0.33;;;;;11.69;79.41;100345.03;4980821;28;45259;-48
2022/12/29 04:40:06;;;;;;;;;1.00;0.00;;;;;11.71;78.97;100346.56;4982056;28;45345;-52
2022/12/29 04:42:31;;;;;;;;;0.00;0.00;;;;;11.73;79.45;100344.53;4980509;28;45483;-49
2022/12/29 04:44:57;;;;;;;;;0.00;0.00;;;;;11.71;78.83;100333.22;4979887;28;46227;-51
2022/12/29 04:47:22;;;;;;;;;0.00;0.00;;;;;11.62;78.96;100328.84;4979994;28;45283;-48
2022/12/29 04:49:47;;;;;;;;;1.00;0.00;;;;;11.65;78.87;100336.53;4979665;28;45410;-50
2022/12/29 04:52:13;;;;;;;;;0.00;0.00;;;;;11.68;78.55;100340.72;4980030;28;45351;-50
2022/12/29 04:54:39;;;;;;;;;0.00;0.00;;;;;11.67;79.20;100349.69;4979462;28;46338;-51
2022/12/29 04:57:05;;;;;;;;;0.33;0.00;;;;;11.63;79.21;100343.88;4979701;28;45458;-50
2022/12/29 04:59:30;;;;;;;;;2.33;0.00;;;;;11.64;79.30;100344.69;4979639;28;45325;-48
2022/12/29 05:01:55;;;;;;;;;0.00;0.00;;;;;11.62;78.85;100362.66;4979739;28;45381;-49
2022/12/29 05:04:20;;;;;;;;;0.00;0.00;;;;;11.60;79.23;100360.19;4979809;28;45337;-50
2022/12/29 05:06:46;;;;;;;;;1.00;0.00;;;;;11.60;79.08;100370.00;4979144;28;45543;-51
2022/12/29 05:09:11;;;;;;;;;2.00;0.00;;;;;11.61;79.53;100374.31;4979204;28;45422;-48
2022/12/29 05:11:36;;;;;;;;;1.00;0.00;;;;;11.61;78.92;100372.50;4979388;28;45321;-51
2022/12/29 05:14:02;;;;;;;;;3.00;0.00;;;;;11.60;78.94;100378.81;4978857;28;47109;-49
2022/12/29 05:16:27;;;;;;;;;0.00;0.00;;;;;11.62;79.48;100387.47;4975171;28;45182;-49
2022/12/29 05:18:52;;;;;;;;;0.00;0.00;;;;;11.63;79.34;100382.97;4977869;28;45203;-51
2022/12/29 05:21:18;;;;;;;;;0.00;0.00;;;;;11.61;79.42;100374.31;4974787;28;45323;-47
2022/12/29 05:23:43;;;;;;;;;1.00;0.00;;;;;11.58;78.97;100367.47;4975779;28;45321;-48
2022/12/29 05:26:08;;;;;;;;;0.67;0.00;;;;;11.58;79.12;100378.13;4975749;28;45369;-50
2022/12/29 05:28:34;;;;;;;;;1.00;0.00;;;;;11.54;78.52;100360.81;4976033;28;45324;-48
2022/12/29 05:30:59;;;;;;;;;1.00;1.00;;;;;11.56;78.42;100379.31;4976031;28;45328;-48
2022/12/29 05:33:24;;;;;;;;;0.67;0.67;;;;;11.55;77.15;100375.81;4975739;28;45351;-46
2022/12/29 05:35:50;;;;;;;;;0.00;0.00;;;;;11.54;77.49;100379.47;4975866;28;45181;-50
2022/12/29 05:38:15;;;;;;;;;2.67;1.00;;;;;11.47;77.40;100376.63;4976051;28;45253;-53
2022/12/29 05:40:40;;;;;;;;;0.00;0.00;;;;;11.53;77.13;100390.28;4976115;28;45312;-50
2022/12/29 05:43:06;;;;;;;;;0.00;0.00;;;;;11.51;77.06;100382.47;4975765;28;45491;-48
2022/12/29 05:45:31;;;;;;;;;0.67;0.00;;;;;11.49;77.11;100376.44;4974321;28;45493;-55
2022/12/29 05:47:56;;;;;;;;;0.67;0.67;;;;;11.45;76.34;100367.94;4975364;28;45468;-53
2022/12/29 05:50:22;;;;;;;;;1.00;0.00;;;;;11.48;76.01;100388.09;4975631;28;45342;-52
2022/12/29 05:52:47;;;;;;;;;1.00;0.00;;;;;11.47;75.81;100391.78;4974126;28;48176;-60
2022/12/29 05:55:12;;;;;;;;;1.00;0.00;;;;;11.44;75.60;100395.56;4975581;28;45479;-59
2022/12/29 05:57:38;;;;;;;;;1.00;0.00;;;;;11.45;74.91;100413.22;4975835;28;45326;-62
2022/12/29 06:00:05;;;;;;;;;0.67;0.67;;;;;11.43;75.02;100398.41;4975653;28;45494;-51
2022/12/29 06:02:30;;;;;;;;;0.00;0.00;;;;;11.46;74.78;100419.38;4975481;28;46447;-58
2022/12/29 06:04:55;;;;;;;;;1.00;0.00;;;;;11.45;74.85;100415.06;4975305;28;45472;-48
2022/12/29 06:07:20;;;;;;;;;2.00;1.00;;;;;11.45;74.61;100436.38;4974021;28;45377;-52
2022/12/29 06:09:46;;;;;;;;;0.00;0.00;;;;;11.45;74.57;100433.69;4975804;28;45442;-59
2022/12/29 06:12:11;;;;;;;;;0.00;0.00;;;;;11.45;74.88;100434.53;4975033;28;46932;-60
2022/12/29 06:14:37;;;;;;;;;3.67;0.00;;;;;11.48;74.80;100438.72;4975289;28;45350;-50
2022/12/29 06:17:02;;;;;;;;;0.00;0.00;;;;;11.47;74.55;100429.06;4975440;28;45240;-46
2022/12/29 06:19:27;;;;;;;;;0.00;0.00;;;;;11.47;74.73;100440.53;4975464;28;45473;-50
2022/12/29 06:21:53;;;;;;;;;2.00;0.33;;;;;11.47;74.45;100432.56;4975108;28;46245;-58
2022/12/29 06:24:19;;;;;;;;;0.00;0.00;;;;;11.45;74.74;100429.19;4975125;28;45580;-58
2022/12/29 06:26:44;;;;;;;;;1.33;1.00;;;;;11.44;74.50;100438.19;4976014;28;45368;-58
2022/12/29 06:29:09;;;;;;;;;4.67;1.00;;;;;11.37;74.57;100434.50;4975214;28;45514;-53
2022/12/29 06:31:35;;;;;;;;;2.00;0.00;;;;;11.43;74.80;100446.34;4974920;28;46073;-50
2022/12/29 06:34:00;;;;;;;;;4.00;1.00;;;;;11.40;74.20;100447.50;4974944;28;45335;-50
2022/12/29 06:36:26;;;;;;;;;2.00;1.00;;;;;11.38;74.39;100449.50;4974837;28;45186;-53
2022/12/29 06:38:54;;;;;;;;;4.33;1.00;;;;;11.34;74.72;100458.81;4975303;28;45381;-51
2022/12/29 06:41:20;;;;;;;;;0.00;0.00;;;;;11.24;75.10;100452.72;4975046;28;46253;-52
2022/12/29 06:43:46;;;;;;;;;1.00;1.00;;;;;11.34;74.92;100468.63;4975086;28;45483;-50
2022/12/29 06:46:11;;;;;;;;;1.00;0.00;;;;;11.35;74.88;100480.94;4975290;28;45455;-53
2022/12/29 06:48:36;;;;;;;;;2.00;1.00;;;;;11.32;74.81;100500.72;4974831;28;45166;-51
2022/12/29 06:51:02;;;;;;;;;1.00;1.00;;;;;11.31;74.91;100484.91;4974911;28;46089;-56
2022/12/29 06:53:27;;;;;;;;;1.00;0.67;;;;;11.25;75.42;100481.06;4974739;28;45347;-58
2022/12/29 06:55:52;;;;;;;;;3.00;0.00;;;;;11.29;75.27;100487.72;4973730;28;45278;-57
2022/12/29 06:58:18;;;;;;;;;0.33;0.33;;;;;11.28;75.63;100493.19;4974923;28;45443;-61
2022/12/29 07:00:43;;;;;;;;;6.00;1.00;;;;;11.24;75.72;100501.50;4974465;28;46335;-49
2022/12/29 07:03:08;;;;;;;;;5.00;1.00;;;;;11.22;75.84;100502.66;4974806;28;45314;-59
2022/12/29 07:05:34;;;;;;;;;1.00;0.00;;;;;11.27;75.82;100508.34;4973303;28;45398;-59
2022/12/29 07:07:59;;;;;;;;;0.00;0.00;;;;;11.23;75.59;100505.16;4974931;28;45341;-60
2022/12/29 07:10:25;;;;;;;;;0.00;0.00;;;;;11.28;75.43;100520.66;4974602;28;47063;-48
2022/12/29 07:12:51;;;;;;;;;2.00;0.00;;;;;11.26;75.85;100512.00;4974184;28;45449;-46
2022/12/29 07:15:16;;;;;;;;;1.00;0.00;;;;;11.22;75.09;100500.00;4974555;28;45391;-59
2022/12/29 07:17:42;;;;;;;;;5.67;0.00;;;;;11.26;75.51;100508.50;4974714;28;45458;-58
2022/12/29 07:20:07;;;;;;;;;0.00;0.00;;;;;11.24;75.37;100508.66;4976223;28;46421;-57
2022/12/29 07:22:33;;;;;;;;;1.33;1.00;;;;;11.23;75.39;100513.16;4974225;28;45331;-59
2022/12/29 07:24:58;;;;;;;;;1.00;1.00;;;;;11.21;75.84;100512.47;4974183;28;45421;-56
2022/12/29 07:27:24;;;;;;;;;3.33;0.00;;;;;11.24;75.40;100524.63;4974901;28;45286;-48
2022/12/29 07:29:49;;;;;;;;;1.00;1.00;;;;;11.22;75.33;100527.47;4974431;28;46219;-51
2022/12/29 07:32:14;;;;;;;;;1.00;0.33;;;;;11.15;75.78;100517.59;4974214;28;45272;-51
2022/12/29 07:34:40;;;;;;;;;1.00;1.00;;;;;11.21;75.78;100532.94;4974439;28;45365;-54
2022/12/29 07:37:06;;;;;;;;;1.67;1.00;;;;;11.20;75.70;100534.75;4974412;28;45345;-55
2022/12/29 07:39:31;;;;;;;;;0.00;0.00;;;;;11.13;75.37;100531.06;4973202;28;46083;-55
2022/12/29 07:41:56;;;;;;;;;4.00;0.00;;;;;11.20;75.54;100526.75;4974038;28;45305;-56
2022/12/29 07:44:22;;;;;;;;;0.67;0.00;;;;;11.11;75.20;100525.03;4974207;28;45280;-55
2022/12/29 07:46:47;;;;;;;;;1.00;1.00;;;;;11.19;75.22;100538.41;4974308;28;45363;-58
2022/12/29 07:49:12;;;;;;;;;5.00;1.00;;;;;11.20;75.33;100545.41;4973503;28;51622;-57
2022/12/29 07:51:38;;;;;;;;;0.00;0.00;;;;;11.19;75.70;100543.75;4974032;28;45339;-52
2022/12/29 07:54:03;;;;;;;;;5.00;1.00;;;;;11.19;75.43;100549.06;4974107;28;45299;-51
2022/12/29 07:56:28;;;;;;;;;2.00;0.00;;;;;11.20;75.36;100556.06;4973906;28;45446;-52
2022/12/29 07:58:54;;;;;;;;;2.00;0.00;;;;;10.86;75.56;100496.56;4975395;28;46151;-61
2022/12/29 08:01:19;;;;;;;;;0.00;0.00;;;;;11.18;75.68;100554.56;4973912;28;45608;-59
2022/12/29 08:03:44;;;;;;;;;0.33;0.00;;;;;11.20;75.47;100565.88;4973736;28;45251;-60
2022/12/29 08:06:11;;;;;;;;;0.67;0.00;;;;;11.19;75.49;100574.84;4973985;28;45323;-57
2022/12/29 08:08:36;;;;;;;;;0.00;0.00;;;;;11.06;75.06;100558.44;4973477;28;47207;-61
2022/12/29 08:11:02;;;;;;;;;2.33;0.00;;;;;11.04;74.99;100558.63;4973566;28;45276;-62
2022/12/29 08:13:27;;;;;;;;;0.00;0.00;;;;;11.17;75.16;100583.00;4973788;28;45429;-60
2022/12/29 08:15:53;;;;;;;;;0.67;0.67;;;;;11.17;75.27;100580.34;4973986;28;45373;-60
2022/12/29 08:18:18;;;;;;;;;3.00;1.67;;;;;11.18;75.17;100581.19;4973706;28;46562;-59
2022/12/29 08:20:43;;;;;;;;;1.00;1.00;;;;;11.18;74.49;100579.34;4973664;28;45322;-59
2022/12/29 08:23:09;;;;;;;;;1.33;1.00;;;;;11.14;74.17;100577.97;4973920;28;45331;-56
2022/12/29 08:25:34;;;;;;;;;2.33;1.67;;;;;11.19;74.49;100598.81;4973817;28;45326;-60
2022/12/29 08:27:59;;;;;;;;;1.00;1.00;;;;;11.20;74.31;100601.31;4973804;28;45349;-54
2022/12/29 08:30:25;;;;;;;;;4.00;1.00;;;;;11.23;73.79;100594.84;4973452;28;45300;-50
2022/12/29 08:32:50;;;;;;;;;1.00;1.00;;;;;11.23;73.82;100593.03;4974035;28;45337;-52
2022/12/29 08:35:16;;;;;;;;;3.67;2.00;;;;;11.20;73.39;100598.66;4974043;28;45653;-62
2022/12/29 08:37:41;;;;;;;;;1.00;1.00;;;;;11.21;73.30;100603.00;4973094;28;52990;-51
2022/12/29 08:40:07;;;;;;;;;3.00;1.00;;;;;11.21;72.85;100604.84;4973495;28;45315;-60
2022/12/29 08:42:33;;;;;;;;;3.00;2.00;;;;;11.24;73.08;100616.00;4973378;28;45434;-57
2022/12/29 08:44:59;;;;;;;;;2.00;1.00;;;;;11.28;72.97;100621.84;4988564;28;45307;-48
2022/12/29 08:47:25;;;;;;;;;1.67;1.00;;;;;11.12;72.57;100595.91;4973248;28;46054;-48
2022/12/29 08:49:51;;;;;;;;;3.00;1.00;;;;;11.29;72.51;100628.84;4973321;28;45259;-58
2022/12/29 08:52:17;;;;;;;;;1.67;0.67;;;;;11.31;72.10;100636.69;4976281;28;45454;-53
2022/12/29 08:54:42;;;;;;;;;2.00;1.00;;;;;11.28;72.75;100634.34;4976603;28;45292;-59
2022/12/29 08:57:08;;;;;;;;;1.00;1.00;;;;;11.30;72.10;100638.53;4977138;28;45445;-52
2022/12/29 08:59:33;;;;;;;;;3.00;0.00;;;;;11.32;72.18;100641.03;4976264;28;45363;-58
2022/12/29 09:01:58;;;;;;;;;2.33;1.00;;;;;11.29;72.25;100631.50;4976299;28;45326;-52
2022/12/29 09:04:24;;;;;;;;;1.00;1.00;;;;;11.32;71.93;100638.38;4976821;28;45335;-48
2022/12/29 09:06:49;;;;;;;;;4.33;1.33;;;;;11.34;72.23;100641.72;4975341;28;54233;-53
2022/12/29 09:09:15;;;;;;;;;6.33;3.00;;;;;11.32;71.91;100633.88;4976196;28;45312;-51
2022/12/29 09:11:41;;;;;;;;;1.00;1.00;;;;;11.35;71.76;100638.91;4976340;28;45465;-53
2022/12/29 09:14:07;;;;;;;;;0.67;0.00;;;;;11.37;71.98;100641.41;4974864;28;45299;-53
2022/12/29 09:16:33;;;;;;;;;4.00;1.00;;;;;11.39;71.71;100650.09;4975921;28;45998;-49
2022/12/29 09:18:59;;;;;;;;;8.00;3.00;;;;;11.43;71.73;100652.28;4975880;28;45204;-50
2022/12/29 09:21:24;;;;;;;;;2.00;0.67;;;;;11.36;71.90;100624.59;4976110;28;45526;-50
2022/12/29 09:23:49;;;;;;;;;7.67;2.00;;;;;11.55;71.61;100647.53;4976412;28;45216;-46
2022/12/29 09:26:15;;;;;;;;;7.33;2.00;;;;;11.59;71.37;100659.56;4975731;28;45456;-48
2022/12/29 09:28:41;;;;;;;;;1.67;0.00;;;;;11.58;71.23;100662.38;4976259;28;45286;-51
2022/12/29 09:31:06;;;;;;;;;2.00;0.33;;;;;11.55;71.35;100663.53;4975948;28;45386;-51
2022/12/29 09:33:34;;;;;;;;;1.33;1.33;;;;;11.65;71.34;100656.25;4976155;28;45465;-49
2022/12/29 09:36:00;;;;;;;;;0.00;0.00;;;;;11.80;71.27;100669.00;4975938;28;47103;-49
2022/12/29 09:38:26;;;;;;;;;3.33;1.00;;;;;11.87;70.72;100667.44;4975790;28;45443;-49
2022/12/29 09:41:11;;;;;;;;;3.33;1.00;;;;;11.81;71.05;100671.53;4976090;28;45282;-51
2022/12/29 09:44:25;;;;;;;;;2.33;1.00;;;;;11.84;70.52;100676.59;4976457;28;45433;-51
2022/12/29 09:46:55;;;;;;;;;2.00;0.00;;;;;11.87;70.90;100678.09;4970779;28;46301;-50
2022/12/29 09:49:35;;;;;;;;;2.67;2.67;;;;;11.87;70.65;100681.59;4975339;28;45415;-48
2022/12/29 09:52:13;;;;;;;;;2.33;1.00;;;;;11.89;70.70;100678.78;4975596;28;45415;-47
2022/12/29 09:54:50;;;;;;;;;3.33;2.00;;;;;12.14;70.50;100680.59;4976035;28;45189;-48
2022/12/29 09:57:21;;;;;;;;;3.00;1.00;;;;;12.41;68.74;100684.06;4975711;28;45447;-49
2022/12/29 09:59:50;;;;;;;;;6.67;1.67;;;;;12.56;68.48;100692.31;4974138;28;45434;-48
2022/12/29 10:02:54;;;;;;;;;3.00;0.00;;;;;12.59;68.80;100703.47;4975303;28;45379;-48
2022/12/29 10:05:23;;;;;;;;;2.00;1.00;;;;;12.53;67.95;100696.13;4975306;28;45232;-49
2022/12/29 10:08:01;;;;;;;;;1.33;1.00;;;;;12.57;68.64;100705.47;4975253;28;47170;-49
2022/12/29 10:10:38;;;;;;;;;7.33;1.67;;;;;12.58;67.64;100701.81;4974026;28;45471;-53
2022/12/29 10:13:22;;;;;;;;;3.00;1.33;;;;;12.66;67.55;100704.50;4975165;28;45381;-50
2022/12/29 10:15:59;;;;;;;;;1.00;1.00;;;;;12.81;67.42;100701.22;4975496;28;45201;-51
2022/12/29 10:18:43;;;;;;;;;3.00;1.00;;;;;13.08;67.05;100708.16;4975304;28;46230;-51
2022/12/29 10:21:34;;;;;;;;;8.00;3.00;;;;;13.51;65.69;100703.53;4975164;28;45402;-51
2022/12/29 10:24:04;;;;;;;;;4.00;0.67;;;;;13.59;64.78;100693.69;4975323;28;45353;-51
2022/12/29 10:26:37;;;;;;;;;1.33;1.00;;;;;13.76;65.34;100694.50;4975686;28;45334;-60
2022/12/29 10:29:20;;;;;;;;;2.00;1.00;;;;;14.07;64.13;100688.44;4975037;28;45425;-57
2022/12/29 10:31:51;;;;;;;;;0.00;0.00;;;;;14.23;62.59;100715.16;4975147;28;45395;-61
2022/12/29 10:34:38;;;;;;;;;4.33;2.00;;;;;14.09;62.72;100700.66;4975115;28;45426;-54
2022/12/29 10:37:38;;;;;;;;;1.67;1.00;;;;;13.95;62.85;100709.38;4975385;28;45508;-48
2022/12/29 10:40:18;;;;;;;;;1.00;1.00;;;;;13.84;63.39;100699.03;4975558;28;46465;-62
2022/12/29 10:42:50;;;;;;;;;4.00;3.00;;;;;13.80;63.25;100693.19;4975561;28;45394;-56
2022/12/29 10:45:18;;;;;;;;;6.67;3.00;;;;;13.92;62.60;100697.16;4975589;28;45250;-60
2022/12/29 10:48:03;;;;;;;;;4.00;3.00;;;;;14.15;62.83;100685.75;4975541;28;45457;-60
2022/12/29 10:50:29;;;;;;;;;1.67;1.00;;;;;14.45;61.70;100687.69;4975487;28;45463;-64
2022/12/29 10:52:58;;;;;;;;;11.00;4.00;;;;;14.83;60.17;100698.59;4975462;28;45371;-64
2022/12/29 10:55:42;;;;;;;;;1.00;1.00;;;;;15.17;61.41;100692.84;4975588;28;45288;-62
2022/12/29 10:58:13;;;;;;;;;1.00;1.00;;;;;15.33;58.75;100691.03;4975967;28;45420;-52
2022/12/29 11:00:39;;;;;;;;;3.00;1.00;;;;;15.36;59.20;100679.97;4975383;28;45349;-62
2022/12/29 11:03:26;;;;;;;;;1.67;0.33;;;;;15.20;58.07;100687.09;4975548;28;45439;-64
2022/12/29 11:06:02;;;;;;;;;2.33;1.00;;;;;15.05;59.13;100680.03;4975685;28;45383;-47
2022/12/29 11:08:37;;;;;;;;;2.33;2.00;;;;;15.43;58.65;100688.97;4975566;28;45403;-52
2022/12/29 11:11:08;;;;;;;;;2.00;2.00;;;;;15.44;58.46;100685.28;4975362;28;46335;-56
2022/12/29 11:13:47;;;;;;;;;7.00;1.67;;;;;15.32;58.24;100694.75;4972908;28;45496;-54
2022/12/29 11:16:12;;;;;;;;;2.00;2.00;;;;;15.09;58.55;100692.91;4975469;28;45211;-54
2022/12/29 11:18:39;;;;;;;;;2.33;0.00;;;;;14.79;58.20;100702.63;4974502;28;45324;-49
2022/12/29 11:21:26;;;;;;;;;9.67;4.00;;;;;14.77;59.19;100701.94;4974972;28;46444;-63
2022/12/29 11:23:57;;;;;;;;;1.00;1.00;;;;;14.82;60.32;100701.41;4975155;28;45340;-60
2022/12/29 11:26:24;;;;;;;;;4.33;1.67;;;;;14.86;58.12;100706.25;4975146;28;45293;-60
2022/12/29 11:29:07;;;;;;;;;2.00;2.00;;;;;14.85;58.59;100695.72;4975575;28;45303;-54
2022/12/29 11:31:41;;;;;;;;;3.67;1.00;;;;;15.05;58.75;100674.69;4974761;28;46337;-59
2022/12/29 11:34:07;;;;;;;;;3.00;1.33;;;;;15.55;56.97;100674.13;4976723;27;45458;-54
2022/12/29 11:36:35;;;;;;;;;2.33;1.00;;;;;15.57;56.24;100679.31;4975127;28;45347;-55
2022/12/29 11:39:00;;;;;;;;;1.00;1.00;;;;;15.71;55.30;100679.34;4975311;28;45432;-60
2022/12/29 11:41:29;;;;;;;;;4.00;0.33;;;;;15.59;55.95;100683.47;4974990;28;45391;-62
2022/12/29 11:43:59;;;;;;;;;4.67;2.67;;;;;15.50;54.88;100687.22;4974843;28;45410;-55
2022/12/29 11:46:32;;;;;;;;;5.00;1.67;;;;;15.58;55.66;100700.56;4975356;28;45556;-53
2022/12/29 11:49:00;;;;;;;;;3.33;3.33;;;;;15.60;56.01;100682.47;4975091;28;45308;-57
2022/12/29 11:51:30;;;;;;;;;5.00;2.67;;;;;15.31;54.92;100680.50;4975343;28;46478;-49
2022/12/29 11:53:59;;;;;;;;;4.00;1.00;;;;;15.04;57.02;100695.25;4974619;28;45480;-48
2022/12/29 11:56:41;;;;;;;;;8.00;1.00;;;;;15.11;57.39;100672.09;4973688;28;45368;-52
2022/12/29 11:59:29;;;;;;;;;5.00;2.00;;;;;15.59;55.72;100674.56;4974977;28;45323;-50
2022/12/29 12:01:58;;;;;;;;;2.33;2.00;;;;;15.71;54.10;100659.75;4974660;28;46967;-47
2022/12/29 12:04:28;;;;;;;;;2.67;1.00;;;;;15.56;55.41;100648.16;4974798;28;45445;-47
2022/12/29 12:07:17;;;;;;;;;7.33;1.00;;;;;15.81;54.83;100659.50;4974702;28;45321;-50
2022/12/29 12:09:54;;;;;;;;;1.00;1.00;;;;;15.82;53.48;100650.44;4974867;28;45594;-49
2022/12/29 12:12:29;;;;;;;;;2.00;0.67;;;;;16.02;53.74;100654.25;4974593;28;45327;-48